首页
METAR-TAF:

METAR-TAF

机场 :

Mackall Army Airfield

Camp Mackall, 北卡罗来纳州, 美国

纬度: 35-02N, 经度: 079-30W, 海拔: 115米

当前天气观测

该预报发布于53分钟前的00:56 UTC
风速3节,风向东北
温度 -2°C
湿度 69%
气压 1036 hPa
能見度: 16.1公里
少量云层高于4000英尺
少量云层高于5500英尺

METAR: KHFF 230056Z AUTO 05003KT 10SM FEW040 FEW055 M02/M07 A3059 RMK AO2 SLP380 T10221073

时间: 20:49 (01:49 UTC)


TAF: 丢失

超过4000个机场的气象观测和天气预报(METAR&TAF报告)。

可查询的气象台以黄色和红色小点在地图上表示。

将鼠标移到小点上方,可查看气象台名称。

然后点击查看天气观测和预报。

如需切换地图:点击带黑十字的绿色按钮放大地图;点击带横线的绿色按钮缩小地图;或者点击绿色箭头查看邻近地区的地图。


METAR-TAF: